Time;durP1;ratioP1;P1;durP2;ratioP2;P2;SDS_P1;SDS_P2;PMS_P1;PMS_P2;Temp;Humidity;BMP_temperature;BMP_pressure;BME280_temperature;BME280_humidity;BME280_pressure;Samples;Min_cycle;Max_cycle;Signal;HPM_P1;HPM_P2
2023/07/31 00:00:11;;;;;;;3.07;2.87;;;15.10;99.90;;;;;;5009886;28;20542;-62
2023/07/31 00:02:40;;;;;;;3.80;2.57;;;15.10;99.90;;;;;;5010909;28;20555;-61
2023/07/31 00:05:09;;;;;;;6.80;3.77;;;15.10;99.90;;;;;;5012237;28;20468;-62
2023/07/31 00:07:37;;;;;;;3.43;3.13;;;15.10;99.90;;;;;;5010011;28;20934;-62
2023/07/31 00:10:06;;;;;;;4.10;3.07;;;15.10;99.90;;;;;;5010911;28;20518;-61
2023/07/31 00:12:34;;;;;;;3.30;2.97;;;15.10;99.90;;;;;;5009506;28;20486;-62
2023/07/31 00:15:02;;;;;;;5.50;3.00;;;15.10;99.90;;;;;;5011488;28;20472;-61
2023/07/31 00:17:30;;;;;;;4.40;3.07;;;15.20;99.90;;;;;;5011146;28;20472;-61
2023/07/31 00:20:00;;;;;;;5.00;2.67;;;15.20;99.90;;;;;;5011339;28;20982;-62
2023/07/31 00:22:28;;;;;;;7.33;2.90;;;15.20;99.90;;;;;;5009511;28;20856;-61
2023/07/31 00:24:56;;;;;;;4.63;3.20;;;15.30;99.90;;;;;;5011538;28;21072;-61
2023/07/31 00:27:24;;;;;;;3.30;2.40;;;15.30;99.90;;;;;;5011512;28;20487;-62
2023/07/31 00:29:52;;;;;;;4.20;3.10;;;15.30;99.90;;;;;;5009876;28;20480;-62
2023/07/31 00:32:20;;;;;;;4.10;2.80;;;15.40;99.90;;;;;;5010162;28;20480;-61
2023/07/31 00:34:48;;;;;;;4.07;3.00;;;15.40;99.90;;;;;;5011507;28;20535;-61
2023/07/31 00:37:17;;;;;;;9.33;3.13;;;15.40;99.90;;;;;;5010086;28;20475;-62
2023/07/31 00:39:45;;;;;;;4.83;2.63;;;15.40;99.90;;;;;;5009857;28;20487;-62
2023/07/31 00:42:13;;;;;;;9.17;2.90;;;15.40;99.90;;;;;;5009066;28;21066;-62
2023/07/31 00:44:41;;;;;;;6.57;2.90;;;15.30;99.90;;;;;;5011529;28;20468;-61
2023/07/31 00:47:09;;;;;;;3.80;3.20;;;15.40;99.90;;;;;;5010103;28;20488;-62
2023/07/31 00:49:38;;;;;;;4.27;2.67;;;15.40;99.90;;;;;;5011020;28;20484;-61
2023/07/31 00:52:07;;;;;;;3.60;3.20;;;15.40;99.90;;;;;;5008564;28;20476;-61
2023/07/31 00:54:36;;;;;;;4.47;2.77;;;15.40;99.90;;;;;;5012684;28;20965;-61
2023/07/31 00:57:04;;;;;;;5.27;2.60;;;15.40;99.90;;;;;;5012660;28;20567;-63
2023/07/31 00:59:32;;;;;;;5.17;2.90;;;15.30;99.90;;;;;;5010092;28;20567;-61
2023/07/31 01:02:01;;;;;;;5.13;3.23;;;15.30;99.90;;;;;;5010198;28;20570;-61
2023/07/31 01:04:29;;;;;;;3.60;2.80;;;15.40;99.90;;;;;;5010806;28;20476;-61
2023/07/31 01:07:05;;;;;;;6.70;3.10;;;15.40;99.90;;;;;;5010654;28;20590;-61
2023/07/31 01:09:42;;;;;;;4.73;3.10;;;15.40;99.90;;;;;;5009623;28;20985;-61
2023/07/31 01:12:15;;;;;;;4.47;3.33;;;15.30;99.90;;;;;;5008861;28;20487;-62
2023/07/31 01:14:52;;;;;;;3.67;2.90;;;15.30;99.90;;;;;;5010316;28;20464;-61
2023/07/31 01:17:20;;;;;;;5.07;2.73;;;15.30;99.90;;;;;;5010325;28;20825;-61
2023/07/31 01:19:49;;;;;;;5.77;3.40;;;15.30;99.90;;;;;;5009682;28;20488;-61
2023/07/31 01:22:31;;;;;;;6.60;3.10;;;15.30;99.90;;;;;;5007671;28;20567;-61
2023/07/31 01:25:13;;;;;;;7.20;3.40;;;15.20;99.90;;;;;;5010486;28;20468;-62
2023/07/31 01:27:50;;;;;;;8.33;3.20;;;15.20;99.90;;;;;;5010349;28;20582;-62
2023/07/31 01:30:23;;;;;;;4.93;3.00;;;15.30;99.90;;;;;;5010799;28;20496;-61
2023/07/31 01:32:53;;;;;;;3.87;3.00;;;15.20;99.90;;;;;;5007757;28;20520;-61
2023/07/31 01:35:22;;;;;;;5.50;2.90;;;15.20;99.90;;;;;;5010261;28;20475;-61
2023/07/31 01:37:50;;;;;;;3.97;3.47;;;15.20;99.90;;;;;;5009809;28;20504;-61
2023/07/31 01:40:18;;;;;;;4.73;3.23;;;15.20;99.90;;;;;;5007152;28;20579;-62
2023/07/31 01:42:47;;;;;;;7.13;3.93;;;15.20;99.90;;;;;;5008967;28;20483;-61
2023/07/31 01:45:15;;;;;;;4.70;3.30;;;15.20;99.90;;;;;;5011173;28;20861;-61
2023/07/31 01:47:43;;;;;;;5.07;3.20;;;15.20;99.90;;;;;;5010054;28;20484;-61
2023/07/31 01:50:11;;;;;;;4.47;4.07;;;15.10;99.90;;;;;;5008041;28;20582;-61
2023/07/31 01:52:39;;;;;;;5.63;3.53;;;15.10;99.90;;;;;;5009043;28;20476;-62
2023/07/31 01:55:07;;;;;;;5.50;3.60;;;15.10;99.90;;;;;;5010292;28;20931;-61
2023/07/31 01:57:36;;;;;;;5.77;3.70;;;15.10;99.90;;;;;;5008202;28;20560;-61
2023/07/31 02:00:06;;;;;;;5.13;3.60;;;15.10;99.90;;;;;;5008611;28;20546;-61
2023/07/31 02:02:34;;;;;;;5.57;3.73;;;15.10;99.90;;;;;;5009499;28;20567;-62
2023/07/31 02:05:02;;;;;;;6.70;3.07;;;15.20;99.90;;;;;;5009661;28;20476;-61
2023/07/31 02:07:31;;;;;;;6.07;3.97;;;15.20;99.90;;;;;;5007844;28;20580;-61
2023/07/31 02:09:59;;;;;;;6.80;3.37;;;15.20;99.90;;;;;;5008995;28;20571;-61
2023/07/31 02:12:30;;;;;;;3.93;3.50;;;15.20;99.90;;;;;;5009666;28;20559;-62
2023/07/31 02:14:58;;;;;;;3.60;2.93;;;15.20;99.90;;;;;;5009698;28;20534;-61
2023/07/31 02:17:27;;;;;;;4.80;3.90;;;15.20;99.90;;;;;;5009419;28;20902;-62
2023/07/31 02:19:55;;;;;;;5.60;4.13;;;15.20;99.90;;;;;;5008588;28;21063;-61
2023/07/31 02:22:22;;;;;;;7.10;3.90;;;15.20;99.90;;;;;;5008309;28;20567;-62
2023/07/31 02:24:50;;;;;;;6.03;4.50;;;15.20;99.90;;;;;;5009245;28;20555;-61
2023/07/31 02:27:18;;;;;;;6.90;4.40;;;15.30;99.90;;;;;;5008974;28;20538;-61
2023/07/31 02:29:46;;;;;;;4.40;3.90;;;15.30;99.90;;;;;;5008763;28;21068;-62
2023/07/31 02:32:14;;;;;;;4.93;4.00;;;15.30;99.90;;;;;;5008590;28;20517;-61
2023/07/31 02:34:44;;;;;;;6.07;3.90;;;15.30;99.90;;;;;;5007280;28;20547;-61
2023/07/31 02:37:12;;;;;;;6.37;3.60;;;15.30;99.90;;;;;;5008646;28;20559;-61
2023/07/31 02:39:40;;;;;;;4.90;3.60;;;15.30;99.90;;;;;;5008581;28;20650;-61
2023/07/31 02:42:07;;;;;;;4.80;3.50;;;15.40;99.90;;;;;;5007216;28;20491;-62
2023/07/31 02:44:35;;;;;;;5.03;3.77;;;15.40;99.90;;;;;;5009374;28;20470;-61
2023/07/31 02:47:04;;;;;;;4.00;3.40;;;15.30;99.90;;;;;;5009402;28;20473;-61
2023/07/31 02:49:32;;;;;;;3.87;3.33;;;15.40;99.90;;;;;;5008075;28;20484;-61
2023/07/31 02:52:01;;;;;;;6.20;3.40;;;15.40;99.90;;;;;;5005636;28;20476;-61
2023/07/31 02:54:29;;;;;;;6.27;3.93;;;15.40;99.90;;;;;;5008858;28;20474;-61
2023/07/31 02:56:57;;;;;;;4.07;3.67;;;15.40;99.90;;;;;;5008669;28;20554;-61
2023/07/31 02:59:25;;;;;;;4.20;3.13;;;15.40;99.90;;;;;;5006034;28;20488;-62
2023/07/31 03:01:53;;;;;;;5.30;3.70;;;15.40;99.90;;;;;;5007987;28;20574;-61
2023/07/31 03:04:21;;;;;;;6.63;3.43;;;15.40;99.90;;;;;;5008783;28;20468;-61
2023/07/31 03:06:49;;;;;;;6.07;3.63;;;15.40;99.90;;;;;;5007196;28;20472;-61
2023/07/31 03:09:19;;;;;;;4.53;3.30;;;15.40;99.90;;;;;;5007473;28;20579;-62
2023/07/31 03:11:47;;;;;;;6.97;3.73;;;15.40;99.90;;;;;;5008195;28;20936;-61
2023/07/31 03:14:15;;;;;;;4.23;3.50;;;15.40;99.90;;;;;;4995960;28;20472;-62
2023/07/31 03:16:45;;;;;;;4.03;3.10;;;15.40;99.90;;;;;;5008877;28;20506;-61
2023/07/31 03:19:13;;;;;;;3.53;3.23;;;15.40;99.90;;;;;;5007382;28;20946;-62
2023/07/31 03:21:41;;;;;;;8.00;4.27;;;15.40;99.90;;;;;;5007050;28;20510;-61
2023/07/31 03:24:09;;;;;;;4.00;3.60;;;15.40;99.90;;;;;;5007137;28;21080;-61
2023/07/31 03:26:41;;;;;;;6.90;3.30;;;15.50;99.90;;;;;;5008919;28;20476;-61
2023/07/31 03:29:09;;;;;;;3.57;3.00;;;15.40;99.90;;;;;;5008440;28;20502;-61
2023/07/31 03:31:37;;;;;;;4.80;3.63;;;15.40;99.90;;;;;;5004841;28;20546;-61
2023/07/31 03:34:05;;;;;;;3.60;3.30;;;15.40;99.90;;;;;;5008680;28;20476;-61
2023/07/31 03:36:33;;;;;;;6.53;3.60;;;15.40;99.90;;;;;;5008249;28;20567;-61
2023/07/31 03:39:01;;;;;;;5.37;3.50;;;15.40;99.90;;;;;;5007975;28;20472;-61
2023/07/31 03:41:29;;;;;;;3.80;3.50;;;15.40;99.90;;;;;;5006203;28;20587;-61
2023/07/31 03:43:58;;;;;;;4.33;3.93;;;15.40;99.90;;;;;;5004626;28;20507;-62
2023/07/31 03:46:26;;;;;;;3.20;2.87;;;15.40;99.90;;;;;;5010505;28;20901;-62
2023/07/31 03:48:54;;;;;;;4.00;3.53;;;15.40;99.90;;;;;;5009449;28;20590;-62
2023/07/31 03:51:22;;;;;;;5.13;4.10;;;15.40;99.90;;;;;;5009145;28;20579;-61
2023/07/31 03:53:50;;;;;;;6.50;3.97;;;15.50;99.90;;;;;;5006909;28;20542;-62
2023/07/31 03:56:18;;;;;;;4.03;3.40;;;15.40;99.90;;;;;;5008751;28;20969;-62
2023/07/31 03:58:46;;;;;;;3.80;3.50;;;15.40;99.90;;;;;;5008087;28;20474;-61
2023/07/31 04:01:15;;;;;;;3.67;3.37;;;15.50;99.90;;;;;;5008769;28;20593;-61
2023/07/31 04:03:43;;;;;;;3.60;3.30;;;15.50;99.90;;;;;;5006399;28;20562;-61
2023/07/31 04:06:11;;;;;;;4.23;3.30;;;15.50;99.90;;;;;;5008037;28;20471;-62
2023/07/31 04:08:39;;;;;;;4.00;3.60;;;15.50;99.90;;;;;;5007532;28;20499;-61
2023/07/31 04:11:07;;;;;;;3.97;3.57;;;15.50;99.90;;;;;;5007832;28;20515;-61
2023/07/31 04:13:35;;;;;;;3.67;2.93;;;15.60;99.90;;;;;;5003738;28;20496;-62
2023/07/31 04:16:03;;;;;;;3.40;3.10;;;15.60;99.90;;;;;;5007063;28;20537;-61
2023/07/31 04:18:32;;;;;;;3.23;2.97;;;15.60;99.90;;;;;;5007663;28;20464;-61
2023/07/31 04:21:01;;;;;;;3.00;2.80;;;15.60;99.90;;;;;;5007278;28;21043;-61
2023/07/31 04:23:29;;;;;;;3.30;3.00;;;15.60;99.90;;;;;;5009663;28;21039;-61
2023/07/31 04:25:57;;;;;;;2.90;2.70;;;15.60;99.90;;;;;;5024004;28;20464;-62
2023/07/31 04:28:25;;;;;;;5.27;3.40;;;15.60;99.90;;;;;;5013502;28;20890;-62
2023/07/31 04:30:54;;;;;;;4.00;2.97;;;15.60;99.90;;;;;;5010808;28;20503;-61
2023/07/31 04:33:22;;;;;;;3.60;2.63;;;15.60;99.90;;;;;;5010759;28;20487;-61
2023/07/31 04:35:54;;;;;;;3.27;2.97;;;15.60;99.90;;;;;;5012428;28;20496;-61
2023/07/31 04:38:22;;;;;;;3.87;3.47;;;15.50;99.90;;;;;;5009360;28;20467;-61
2023/07/31 04:40:50;;;;;;;4.70;3.17;;;15.50;99.90;;;;;;5010396;28;20550;-61
2023/07/31 04:43:18;;;;;;;4.00;3.00;;;15.50;99.90;;;;;;5010951;28;20484;-61
2023/07/31 04:45:47;;;;;;;3.00;2.80;;;15.50;99.90;;;;;;5011596;28;20475;-61
2023/07/31 04:48:15;;;;;;;2.80;2.40;;;15.60;99.90;;;;;;5001836;28;20934;-62
2023/07/31 04:50:43;;;;;;;3.50;3.30;;;15.60;99.90;;;;;;5011347;28;20526;-61
2023/07/31 04:53:13;;;;;;;3.27;2.97;;;15.60;99.90;;;;;;5011499;28;20945;-61
2023/07/31 04:55:41;;;;;;;2.83;2.63;;;15.60;99.90;;;;;;5012113;28;20535;-61
2023/07/31 04:58:09;;;;;;;2.70;2.50;;;15.60;99.90;;;;;;5009818;28;20504;-61
2023/07/31 05:00:37;;;;;;;3.20;3.00;;;15.60;99.90;;;;;;5010659;28;20957;-61
2023/07/31 05:03:05;;;;;;;2.70;2.50;;;15.60;99.90;;;;;;5010886;28;20558;-61
2023/07/31 05:05:33;;;;;;;3.03;2.80;;;15.60;99.90;;;;;;5011216;28;20555;-61
2023/07/31 05:08:01;;;;;;;3.33;2.80;;;15.60;99.90;;;;;;5009386;28;20556;-61
2023/07/31 05:10:30;;;;;;;3.00;2.70;;;15.70;99.90;;;;;;5011042;28;20941;-61
2023/07/31 05:12:58;;;;;;;3.27;2.70;;;15.70;99.90;;;;;;5006349;28;21107;-61
2023/07/31 05:15:26;;;;;;;2.47;2.27;;;15.60;99.90;;;;;;5009956;28;20479;-61
2023/07/31 05:17:54;;;;;;;4.43;2.33;;;15.60;99.90;;;;;;5005460;28;20491;-61
2023/07/31 05:20:22;;;;;;;2.80;2.60;;;15.60;99.90;;;;;;5010000;28;20611;-62
2023/07/31 05:22:51;;;;;;;2.83;2.60;;;15.60;99.90;;;;;;5009879;28;21067;-61
2023/07/31 05:25:19;;;;;;;2.70;2.50;;;15.60;99.90;;;;;;5010208;28;20604;-62
2023/07/31 05:27:48;;;;;;;3.00;2.60;;;15.60;99.90;;;;;;5010068;28;20961;-61
2023/07/31 05:30:16;;;;;;;3.10;2.60;;;15.60;99.90;;;;;;5010331;28;20520;-61
2023/07/31 05:32:44;;;;;;;2.57;2.37;;;15.70;99.90;;;;;;5009552;28;20829;-61
2023/07/31 05:35:12;;;;;;;2.90;2.70;;;15.70;99.90;;;;;;5008919;28;20468;-61
2023/07/31 05:37:40;;;;;;;2.70;2.50;;;15.70;99.90;;;;;;5009915;28;20508;-61
2023/07/31 05:40:09;;;;;;;2.50;2.30;;;15.60;99.90;;;;;;5009756;28;20571;-61
2023/07/31 05:42:38;;;;;;;3.70;2.40;;;15.60;99.90;;;;;;5007785;28;20578;-61
2023/07/31 05:45:08;;;;;;;2.60;2.40;;;15.60;99.90;;;;;;5010893;28;20487;-61
2023/07/31 05:47:36;;;;;;;2.80;2.60;;;15.60;99.90;;;;;;5010637;28;20559;-62
2023/07/31 05:50:05;;;;;;;2.47;2.27;;;15.60;99.90;;;;;;5011018;28;20499;-62
2023/07/31 05:52:33;;;;;;;3.10;2.63;;;15.60;99.90;;;;;;5009928;28;20987;-61
2023/07/31 05:55:01;;;;;;;2.30;2.13;;;15.60;99.90;;;;;;5012795;28;20541;-62
2023/07/31 05:57:29;;;;;;;2.63;2.43;;;15.50;99.90;;;;;;5012178;28;20522;-61
2023/07/31 05:59:57;;;;;;;2.63;2.43;;;15.60;99.90;;;;;;5011218;28;20488;-61
2023/07/31 06:02:26;;;;;;;2.70;2.50;;;15.60;99.90;;;;;;5007463;28;20989;-62
2023/07/31 06:04:54;;;;;;;2.63;2.43;;;15.70;99.90;;;;;;5011291;28;20556;-62
2023/07/31 06:07:22;;;;;;;3.63;2.70;;;15.70;99.90;;;;;;5011026;28;20518;-62
2023/07/31 06:09:50;;;;;;;2.67;2.47;;;15.70;99.90;;;;;;5008016;28;20811;-61
2023/07/31 06:12:18;;;;;;;3.20;2.90;;;15.70;99.90;;;;;;5008244;28;20539;-61
2023/07/31 06:14:46;;;;;;;2.90;2.70;;;15.70;99.90;;;;;;5009959;28;20460;-61
2023/07/31 06:17:14;;;;;;;3.60;3.30;;;15.70;99.90;;;;;;5009807;28;20564;-61
2023/07/31 06:19:44;;;;;;;2.93;2.63;;;15.80;99.90;;;;;;5007173;28;20568;-61
2023/07/31 06:22:12;;;;;;;3.20;3.00;;;15.80;99.90;;;;;;5008436;28;20563;-62
2023/07/31 06:24:40;;;;;;;3.07;2.87;;;15.90;99.90;;;;;;5010315;28;20551;-62
2023/07/31 06:27:08;;;;;;;3.10;2.90;;;16.00;99.90;;;;;;5007952;28;20559;-61
2023/07/31 06:29:36;;;;;;;2.83;2.50;;;15.90;99.90;;;;;;5009208;28;21008;-62
2023/07/31 06:32:04;;;;;;;2.93;2.73;;;16.00;99.90;;;;;;5008870;28;20507;-62
2023/07/31 06:34:32;;;;;;;2.80;2.60;;;16.00;99.90;;;;;;5010110;28;20551;-61
2023/07/31 06:37:02;;;;;;;3.13;2.83;;;16.00;99.90;;;;;;5007995;28;20559;-61
2023/07/31 06:39:30;;;;;;;3.10;2.90;;;15.90;99.90;;;;;;5009200;28;20578;-62
2023/07/31 06:41:58;;;;;;;2.80;2.60;;;15.90;99.90;;;;;;5007221;28;21135;-62
2023/07/31 06:44:26;;;;;;;2.90;2.70;;;16.00;99.90;;;;;;5008953;28;20476;-62
2023/07/31 06:46:53;;;;;;;3.10;2.90;;;16.00;99.90;;;;;;5008560;28;20518;-61
2023/07/31 06:49:22;;;;;;;3.20;3.00;;;16.00;99.90;;;;;;5008840;28;20996;-61
2023/07/31 06:51:50;;;;;;;2.93;2.73;;;15.90;99.90;;;;;;5008015;28;20464;-61
2023/07/31 06:54:19;;;;;;;3.00;2.80;;;15.90;99.90;;;;;;5009068;28;20479;-61
2023/07/31 06:56:47;;;;;;;4.17;2.93;;;15.90;99.90;;;;;;5010946;28;21065;-62
2023/07/31 06:59:15;;;;;;;2.77;2.67;;;16.00;99.90;;;;;;5022987;28;20472;-61
2023/07/31 07:01:43;;;;;;;3.10;2.87;;;16.00;99.90;;;;;;5017941;28;20499;-61
2023/07/31 07:04:11;;;;;;;2.70;2.50;;;16.00;99.90;;;;;;5011994;28;20854;-61
2023/07/31 07:06:38;;;;;;;3.20;2.90;;;16.00;99.90;;;;;;5008899;28;20901;-61
2023/07/31 07:09:07;;;;;;;3.10;2.90;;;16.10;99.90;;;;;;5007831;28;20961;-61
2023/07/31 07:11:37;;;;;;;2.80;2.60;;;16.10;99.90;;;;;;5006849;28;20582;-61
2023/07/31 07:14:05;;;;;;;3.30;3.10;;;16.20;99.90;;;;;;5009353;28;20582;-63
2023/07/31 07:16:33;;;;;;;3.20;3.00;;;16.20;99.90;;;;;;5008110;28;20563;-62
2023/07/31 07:19:01;;;;;;;3.03;2.80;;;16.20;99.90;;;;;;5009086;28;20506;-63
2023/07/31 07:21:32;;;;;;;2.87;2.67;;;16.20;99.90;;;;;;5009617;28;20471;-64
2023/07/31 07:24:00;;;;;;;3.00;2.80;;;16.20;99.90;;;;;;5008503;28;20464;-62
2023/07/31 07:26:28;;;;;;;3.30;3.10;;;16.20;99.90;;;;;;5009588;28;20926;-61
2023/07/31 07:28:58;;;;;;;2.73;2.53;;;16.30;99.90;;;;;;5009146;28;20480;-62
2023/07/31 07:31:28;;;;;;;2.63;2.30;;;16.30;99.90;;;;;;5009210;28;20519;-62
2023/07/31 07:33:57;;;;;;;3.20;3.00;;;16.30;99.90;;;;;;5007226;28;20491;-62
2023/07/31 07:36:25;;;;;;;2.80;2.60;;;16.20;99.90;;;;;;5008888;28;20607;-62
2023/07/31 07:38:53;;;;;;;2.43;2.23;;;16.20;99.90;;;;;;5008469;28;20491;-61
2023/07/31 07:41:21;;;;;;;2.40;2.23;;;16.20;99.90;;;;;;5007266;28;20480;-62
2023/07/31 07:43:49;;;;;;;2.43;2.13;;;16.20;99.90;;;;;;5008307;28;20479;-61
2023/07/31 07:46:18;;;;;;;2.20;2.00;;;16.20;99.90;;;;;;5008716;28;20861;-62
2023/07/31 07:48:46;;;;;;;2.10;2.00;;;16.20;99.90;;;;;;5008197;28;20564;-62
2023/07/31 07:51:14;;;;;;;2.40;2.20;;;16.10;99.90;;;;;;5007272;28;20519;-62
2023/07/31 07:53:42;;;;;;;2.20;2.10;;;16.10;99.90;;;;;;5008266;28;20514;-62
2023/07/31 07:56:10;;;;;;;2.10;2.00;;;16.10;99.90;;;;;;5009360;28;20500;-62
2023/07/31 07:58:38;;;;;;;2.23;2.13;;;16.10;99.90;;;;;;5010850;28;21061;-62
2023/07/31 08:01:06;;;;;;;2.43;2.23;;;16.20;99.90;;;;;;5012761;28;20579;-62
2023/07/31 08:03:35;;;;;;;2.60;2.40;;;16.20;99.90;;;;;;5011390;28;20483;-62
2023/07/31 08:06:03;;;;;;;2.87;2.57;;;16.20;99.90;;;;;;5012199;28;20494;-62
2023/07/31 08:08:32;;;;;;;3.60;2.40;;;16.30;99.90;;;;;;5010820;28;20475;-62
2023/07/31 08:11:00;;;;;;;3.03;2.83;;;16.30;99.90;;;;;;5011007;28;20943;-62
2023/07/31 08:13:28;;;;;;;2.77;2.57;;;16.40;99.90;;;;;;5010899;28;20476;-62
2023/07/31 08:15:56;;;;;;;2.70;2.50;;;16.40;99.90;;;;;;5012124;28;20821;-62
2023/07/31 08:18:24;;;;;;;2.80;2.60;;;16.60;99.90;;;;;;5011498;28;20491;-62
2023/07/31 08:20:53;;;;;;;2.70;2.50;;;16.60;99.90;;;;;;5009292;28;20502;-62
2023/07/31 08:23:21;;;;;;;2.83;2.63;;;16.60;99.90;;;;;;5010544;28;20476;-63
2023/07/31 08:25:50;;;;;;;2.80;2.60;;;16.60;99.90;;;;;;5012319;28;20538;-62
2023/07/31 08:28:18;;;;;;;2.70;2.50;;;16.70;99.90;;;;;;5011786;28;20468;-62
2023/07/31 08:30:46;;;;;;;2.97;2.77;;;16.60;99.90;;;;;;5010611;28;20495;-62
2023/07/31 08:33:14;;;;;;;2.73;2.53;;;16.70;99.90;;;;;;5011343;28;20531;-62
2023/07/31 08:35:42;;;;;;;2.60;2.40;;;16.80;99.90;;;;;;5011558;28;20518;-62
2023/07/31 08:38:13;;;;;;;2.70;2.50;;;16.80;99.90;;;;;;5010135;28;20468;-63
2023/07/31 08:40:41;;;;;;;2.37;2.17;;;16.90;99.90;;;;;;5012222;28;20583;-62
2023/07/31 08:43:10;;;;;;;2.50;2.30;;;16.90;99.90;;;;;;5012114;28;20486;-62
2023/07/31 08:45:39;;;;;;;2.80;2.60;;;16.90;99.90;;;;;;5012164;28;21042;-62
2023/07/31 08:48:07;;;;;;;2.20;2.10;;;17.00;99.90;;;;;;5010614;28;20994;-62
2023/07/31 08:50:36;;;;;;;3.60;3.30;;;17.00;99.90;;;;;;5017263;28;20566;-62
2023/07/31 08:53:04;;;;;;;3.47;3.27;;;17.00;99.90;;;;;;5026566;28;20760;-59
2023/07/31 08:55:34;;;;;;;2.50;2.30;;;17.00;99.90;;;;;;5030827;28;20524;-60
2023/07/31 08:58:05;;;;;;;2.37;2.23;;;17.10;99.90;;;;;;5025695;28;20518;-62
2023/07/31 09:00:33;;;;;;;2.40;2.30;;;17.10;99.90;;;;;;5012104;28;20560;-60
2023/07/31 09:03:06;;;;;;;2.00;1.90;;;17.10;99.90;;;;;;5009733;28;20522;-59
2023/07/31 09:05:36;;;;;;;2.10;1.90;;;17.20;99.90;;;;;;5010996;28;20950;-62
2023/07/31 09:08:05;;;;;;;2.10;2.00;;;17.20;99.90;;;;;;5010273;28;20539;-61
2023/07/31 09:10:35;;;;;;;2.07;1.97;;;17.20;99.90;;;;;;5008894;28;20519;-60
2023/07/31 09:13:04;;;;;;;2.00;1.90;;;17.20;99.90;;;;;;5009171;28;20484;-60
2023/07/31 09:15:32;;;;;;;2.33;2.13;;;17.30;99.90;;;;;;5010878;28;20508;-60
2023/07/31 09:18:06;;;;;;;2.00;1.90;;;17.30;99.90;;;;;;5010133;28;20838;-60
2023/07/31 09:20:35;;;;;;;2.40;2.20;;;17.20;99.90;;;;;;5009053;28;20972;-60
2023/07/31 09:23:08;;;;;;;1.60;1.50;;;17.10;99.90;;;;;;5010547;28;20480;-60
2023/07/31 09:25:38;;;;;;;2.00;1.80;;;17.10;99.90;;;;;;5011119;28;20534;-60
2023/07/31 09:28:08;;;;;;;1.80;1.70;;;17.00;99.90;;;;;;5010749;28;20478;-62
2023/07/31 09:30:48;;;;;;;1.63;1.53;;;17.00;99.90;;;;;;5008946;28;20487;-62
2023/07/31 09:33:16;;;;;;;1.90;1.70;;;17.10;99.90;;;;;;5019531;28;20484;-62
2023/07/31 09:35:45;;;;;;;1.80;1.70;;;17.10;99.90;;;;;;5026193;28;20472;-60
2023/07/31 09:38:14;;;;;;;2.17;1.97;;;17.10;99.90;;;;;;5017748;28;20476;-60
2023/07/31 09:40:45;;;;;;;1.80;1.70;;;17.10;99.90;;;;;;5009491;28;20516;-61
2023/07/31 09:43:14;;;;;;;1.80;1.70;;;17.00;99.90;;;;;;5010202;28;21081;-61
2023/07/31 09:45:44;;;;;;;1.50;1.40;;;17.10;99.90;;;;;;5009877;28;20567;-60
2023/07/31 09:48:15;;;;;;;1.50;1.40;;;17.10;99.90;;;;;;5008341;28;20571;-61
2023/07/31 09:50:45;;;;;;;1.40;1.30;;;17.10;99.90;;;;;;5009889;28;20538;-60
2023/07/31 09:53:13;;;;;;;1.67;1.57;;;17.10;99.90;;;;;;5009622;28;20496;-62
2023/07/31 09:55:44;;;;;;;1.60;1.50;;;17.10;99.90;;;;;;5009146;28;20582;-61
2023/07/31 09:58:13;;;;;;;1.60;1.50;;;17.30;99.90;;;;;;5009938;28;20908;-61
2023/07/31 10:00:41;;;;;;;2.37;1.47;;;17.30;99.90;;;;;;5009812;28;20492;-63
2023/07/31 10:03:10;;;;;;;1.47;1.37;;;17.40;99.90;;;;;;5009507;28;20575;-60
2023/07/31 10:05:43;;;;;;;2.53;1.37;;;17.40;99.90;;;;;;5008860;28;20496;-60
2023/07/31 10:08:13;;;;;;;1.33;1.23;;;17.50;99.90;;;;;;5009680;28;20468;-60
2023/07/31 10:10:44;;;;;;;1.50;1.40;;;17.40;99.90;;;;;;5009402;28;20579;-61
2023/07/31 10:13:12;;;;;;;1.53;1.43;;;17.40;99.90;;;;;;5007704;28;20583;-61
2023/07/31 10:15:43;;;;;;;1.13;1.13;;;17.50;99.90;;;;;;5010049;28;20550;-63
2023/07/31 10:18:12;;;;;;;4.10;1.43;;;17.50;99.90;;;;;;5009429;28;20541;-60
2023/07/31 10:20:42;;;;;;;2.00;1.30;;;17.60;99.90;;;;;;5008761;28;20580;-61
2023/07/31 10:23:10;;;;;;;1.60;1.40;;;17.50;99.90;;;;;;5007899;28;20567;-61
2023/07/31 10:25:39;;;;;;;1.43;1.30;;;17.40;99.90;;;;;;5009594;28;20500;-60
2023/07/31 10:28:09;;;;;;;1.13;1.13;;;17.30;99.90;;;;;;5009356;28;20472;-60
2023/07/31 10:30:39;;;;;;;1.37;1.10;;;17.30;99.90;;;;;;5009708;28;20488;-61
2023/07/31 10:33:08;;;;;;;1.30;1.20;;;17.20;99.90;;;;;;5008597;28;20491;-61
2023/07/31 10:35:36;;;;;;;1.10;1.10;;;17.10;99.90;;;;;;5009587;28;20562;-61
2023/07/31 10:38:12;;;;;;;1.10;1.00;;;17.10;99.90;;;;;;5009227;28;20504;-61
2023/07/31 10:40:41;;;;;;;2.00;0.90;;;17.10;99.90;;;;;;5008116;28;20502;-60
2023/07/31 10:43:11;;;;;;;0.70;0.70;;;17.20;99.90;;;;;;5007598;28;20586;-61
2023/07/31 10:45:42;;;;;;;0.70;0.70;;;17.20;99.90;;;;;;5008734;28;20986;-60
2023/07/31 10:48:14;;;;;;;0.90;0.60;;;17.10;99.90;;;;;;5009283;28;20472;-60
2023/07/31 10:50:48;;;;;;;0.80;0.80;;;17.20;99.90;;;;;;5007911;28;20496;-60
2023/07/31 10:53:24;;;;;;;1.27;0.90;;;17.20;99.90;;;;;;5008617;28;20488;-60
2023/07/31 10:55:52;;;;;;;1.97;0.90;;;17.10;99.90;;;;;;5009104;28;20574;-60
2023/07/31 10:58:22;;;;;;;0.60;0.60;;;17.10;99.90;;;;;;5008773;28;20526;-60
2023/07/31 11:00:50;;;;;;;0.70;0.70;;;17.10;99.90;;;;;;5007045;28;20511;-60
2023/07/31 11:03:22;;;;;;;0.80;0.80;;;17.10;99.90;;;;;;5008028;28;20971;-61
2023/07/31 11:05:54;;;;;;;1.00;0.90;;;17.10;99.90;;;;;;5008857;28;20527;-60
2023/07/31 11:08:23;;;;;;;1.03;0.93;;;17.10;99.90;;;;;;5008461;28;20480;-61
2023/07/31 11:11:05;;;;;;;1.60;1.00;;;17.20;99.90;;;;;;5008661;28;20571;-61
2023/07/31 11:13:40;;;;;;;2.00;0.97;;;17.20;99.90;;;;;;5006233;28;20540;-61
2023/07/31 11:16:09;;;;;;;1.47;1.30;;;17.10;99.90;;;;;;5008572;28;20480;-60
2023/07/31 11:18:39;;;;;;;2.50;1.00;;;17.10;99.90;;;;;;5008341;28;20995;-61
2023/07/31 11:21:07;;;;;;;0.97;0.97;;;17.10;99.90;;;;;;4997786;28;20492;-61
2023/07/31 11:23:37;;;;;;;1.83;1.20;;;17.10;99.90;;;;;;5008898;28;21031;-60
2023/07/31 11:26:06;;;;;;;1.43;1.20;;;17.20;99.90;;;;;;5009279;28;20472;-61
2023/07/31 11:28:36;;;;;;;1.20;1.10;;;17.30;99.90;;;;;;5013116;28;20480;-60
2023/07/31 11:31:05;;;;;;;1.10;1.10;;;17.20;99.90;;;;;;5018733;28;20483;-61
2023/07/31 11:33:33;;;;;;;1.33;0.93;;;17.30;99.90;;;;;;5018226;28;20555;-61
2023/07/31 11:36:01;;;;;;;1.17;1.17;;;17.20;99.90;;;;;;5015577;28;20550;-61
2023/07/31 11:38:31;;;;;;;0.70;0.70;;;17.10;99.90;;;;;;5015965;28;20536;-61
2023/07/31 11:41:00;;;;;;;0.70;0.70;;;17.10;99.90;;;;;;5013339;28;20492;-61
2023/07/31 11:43:29;;;;;;;8.50;7.70;;;17.10;99.90;;;;;;5004773;28;20582;-61
2023/07/31 11:45:59;;;;;;;1.47;1.37;;;17.20;99.90;;;;;;5002736;28;20631;-61
2023/07/31 11:48:29;;;;;;;1.47;0.80;;;17.10;99.90;;;;;;5003939;28;20860;-60
2023/07/31 11:50:59;;;;;;;0.90;0.77;;;17.10;99.90;;;;;;5002710;28;20515;-61
2023/07/31 11:53:30;;;;;;;0.97;0.70;;;17.10;99.90;;;;;;5003761;28;20935;-61
2023/07/31 11:55:59;;;;;;;1.10;0.70;;;17.00;99.90;;;;;;5004631;28;20527;-61
2023/07/31 11:58:29;;;;;;;1.53;0.80;;;17.00;99.90;;;;;;5005376;28;20472;-61
2023/07/31 12:01:00;;;;;;;2.03;1.00;;;17.10;99.90;;;;;;5002545;28;20587;-61
2023/07/31 12:03:28;;;;;;;2.07;1.40;;;17.10;99.90;;;;;;5003981;28;20583;-61
2023/07/31 12:05:56;;;;;;;1.43;1.20;;;17.00;99.90;;;;;;5003997;28;20483;-61
2023/07/31 12:08:25;;;;;;;0.70;0.67;;;17.00;99.90;;;;;;5010345;28;20484;-61
2023/07/31 12:10:54;;;;;;;0.97;0.97;;;16.90;99.90;;;;;;5019581;28;20543;-61
2023/07/31 12:13:24;;;;;;;1.27;0.90;;;16.90;99.90;;;;;;5007834;28;20484;-61
2023/07/31 12:15:57;;;;;;;1.00;0.93;;;16.90;99.90;;;;;;5004346;28;20472;-61
2023/07/31 12:18:28;;;;;;;1.50;1.20;;;16.80;99.90;;;;;;5005235;28;21027;-61
2023/07/31 12:20:58;;;;;;;1.70;0.87;;;16.90;99.90;;;;;;5004319;28;20758;-61
2023/07/31 12:23:28;;;;;;;2.00;1.10;;;17.00;99.90;;;;;;5003072;28;20520;-61
2023/07/31 12:26:03;;;;;;;1.27;1.10;;;17.00;99.90;;;;;;5003630;28;20472;-61
2023/07/31 12:28:31;;;;;;;1.70;1.10;;;17.10;99.90;;;;;;5003676;28;20471;-61
2023/07/31 12:31:01;;;;;;;1.10;1.00;;;17.10;99.90;;;;;;5003912;28;20535;-61
2023/07/31 12:33:35;;;;;;;1.60;1.30;;;17.10;99.90;;;;;;5005120;28;20534;-61
2023/07/31 12:36:04;;;;;;;1.10;1.00;;;17.10;99.90;;;;;;5002088;28;21070;-61
2023/07/31 12:38:32;;;;;;;2.63;1.57;;;17.10;99.90;;;;;;5003452;28;20479;-61
2023/07/31 12:41:00;;;;;;;1.37;1.27;;;17.10;99.90;;;;;;5001385;28;20578;-61
2023/07/31 12:43:28;;;;;;;1.30;1.20;;;17.20;99.90;;;;;;5000678;28;20565;-61
2023/07/31 12:45:57;;;;;;;0.90;0.90;;;17.10;99.90;;;;;;4999319;28;20563;-61
2023/07/31 12:48:25;;;;;;;1.33;1.00;;;17.20;99.90;;;;;;5002636;28;20480;-61
2023/07/31 12:50:54;;;;;;;0.83;0.83;;;17.20;99.90;;;;;;5004502;28;20490;-61
2023/07/31 12:53:22;;;;;;;0.73;0.73;;;17.20;99.90;;;;;;5003679;28;20550;-61
2023/07/31 12:55:50;;;;;;;0.70;0.70;;;17.20;99.90;;;;;;5003247;28;20562;-62